Time;durP1;ratioP1;P1;durP2;ratioP2;P2;SDS_P1;SDS_P2;PMS_P1;PMS_P2;Temp;Humidity;BMP_temperature;BMP_pressure;BME280_temperature;BME280_humidity;BME280_pressure;Samples;Min_cycle;Max_cycle;Signal;HPM_P1;HPM_P2
2022/01/02 00:00:15;;;;;;;;;;;;;;;;;;2104922;28;19920;-50
2022/01/02 00:01:16;;;;;;;;;;;;;;;;;;2097716;28;19920;-53
2022/01/02 00:02:17;;;;;;;;;;;;;;;;;;2101138;28;19950;-50
2022/01/02 00:03:19;;;;;;;;;;;;;;;;;;2101417;28;20412;-51
2022/01/02 00:04:20;;;;;;;;;;;;;;;;;;2097731;28;20018;-52
2022/01/02 00:05:20;;;;;;;;;;;;;;;;;;2099362;28;19920;-51
2022/01/02 00:06:21;;;;;;;;;;;;;;;;;;2104813;28;19920;-50
2022/01/02 00:07:22;;;;;;;;;;;;;;;;;;2106058;28;19920;-51
2022/01/02 00:08:24;;;;;;;;;;;;;;;;;;2105006;28;19941;-52
2022/01/02 00:09:25;;;;;;;;;;;;;;;;;;2102297;28;19966;-50
2022/01/02 00:10:27;;;;;;;;;;;;;;;;;;2097626;28;19921;-49
2022/01/02 00:11:27;;;;;;;;;;;;;;;;;;2101268;28;19921;-50
2022/01/02 00:12:28;;;;;;;;;;;;;;;;;;2104625;28;19927;-51
2022/01/02 00:13:32;;;;;;;;;;;;;;;;;;2106048;28;19973;-51
2022/01/02 00:14:33;;;;;;;;;;;;;;;;;;2103333;28;19924;-51
2022/01/02 00:15:34;;;;;;;;;;;;;;;;;;2098571;28;19943;-51
2022/01/02 00:16:35;;;;;;;;;;;;;;;;;;2097600;28;19921;-51
2022/01/02 00:17:35;;;;;;;;;;;;;;;;;;2105061;28;19955;-50
2022/01/02 00:18:39;;;;;;;;;;;;;;;;;;2098049;28;19920;-51
2022/01/02 00:19:45;;;;;;;;;;;;;;;;;;2097624;28;19963;-53
2022/01/02 00:20:48;;;;;;;;;;;;;;;;;;2104386;28;19924;-53
2022/01/02 00:21:51;;;;;;;;;;;;;;;;;;2105736;28;20022;-50
2022/01/02 00:22:52;;;;;;;;;;;;;;;;;;2105775;28;19999;-51
2022/01/02 00:24:00;;;;;;;;;;;;;;;;;;2104136;28;20169;-52
2022/01/02 00:25:02;;;;;;;;;;;;;;;;;;2106103;28;19966;-53
2022/01/02 00:26:05;;;;;;;;;;;;;;;;;;2103834;28;20455;-54
2022/01/02 00:27:06;;;;;;;;;;;;;;;;;;2105158;28;20018;-51
2022/01/02 00:28:07;;;;;;;;;;;;;;;;;;2106122;28;19920;-50
2022/01/02 00:29:13;;;;;;;;;;;;;;;;;;2106366;28;19920;-51
2022/01/02 00:30:14;;;;;;;;;;;;;;;;;;2106099;28;19920;-54
2022/01/02 00:31:15;;;;;;;;;;;;;;;;;;2107327;28;19920;-52
2022/01/02 00:32:16;;;;;;;;;;;;;;;;;;2103640;28;19924;-52
2022/01/02 00:33:17;;;;;;;;;;;;;;;;;;2114091;28;19920;-51
2022/01/02 00:34:18;;;;;;;;;;;;;;;;;;2116058;28;19919;-52
2022/01/02 00:35:19;;;;;;;;;;;;;;;;;;2108223;28;19920;-53
2022/01/02 00:36:19;;;;;;;;;;;;;;;;;;2107000;28;19969;-51
2022/01/02 00:37:20;;;;;;;;;;;;;;;;;;2107286;28;20377;-51
2022/01/02 00:38:21;;;;;;;;;;;;;;;;;;2104960;28;19926;-50
2022/01/02 00:39:22;;;;;;;;;;;;;;;;;;2107149;28;19920;-51
2022/01/02 00:40:23;;;;;;;;;;;;;;;;;;2107296;28;19924;-54
2022/01/02 00:41:24;;;;;;;;;;;;;;;;;;2105114;28;19920;-50
2022/01/02 00:42:25;;;;;;;;;;;;;;;;;;2107220;28;19924;-50
2022/01/02 00:43:26;;;;;;;;;;;;;;;;;;2107444;28;20002;-50
2022/01/02 00:44:26;;;;;;;;;;;;;;;;;;2107585;28;19942;-50
2022/01/02 00:45:27;;;;;;;;;;;;;;;;;;2099049;28;19921;-51
2022/01/02 00:46:28;;;;;;;;;;;;;;;;;;2098951;28;19921;-50
2022/01/02 00:47:29;;;;;;;;;;;;;;;;;;2104674;28;20014;-51
2022/01/02 00:48:30;;;;;;;;;;;;;;;;;;2107361;28;20280;-53
2022/01/02 00:49:31;;;;;;;;;;;;;;;;;;2106756;28;19923;-51
2022/01/02 00:50:32;;;;;;;;;;;;;;;;;;2105383;28;19924;-50
2022/01/02 00:51:33;;;;;;;;;;;;;;;;;;2107118;28;20295;-52
2022/01/02 00:52:34;;;;;;;;;;;;;;;;;;2106757;28;19920;-51
2022/01/02 00:53:35;;;;;;;;;;;;;;;;;;2106039;28;19920;-50
2022/01/02 00:54:35;;;;;;;;;;;;;;;;;;2098999;28;20324;-51
2022/01/02 00:55:36;;;;;;;;;;;;;;;;;;2099587;28;19920;-49
2022/01/02 00:56:37;;;;;;;;;;;;;;;;;;2105660;28;19924;-51
2022/01/02 00:57:38;;;;;;;;;;;;;;;;;;2107116;28;19965;-51
2022/01/02 00:58:38;;;;;;;;;;;;;;;;;;2105498;28;19920;-51
2022/01/02 00:59:39;;;;;;;;;;;;;;;;;;2110068;28;19926;-53
2022/01/02 01:00:40;;;;;;;;;;;;;;;;;;2115602;28;19930;-50
2022/01/02 01:01:41;;;;;;;;;;;;;;;;;;2110500;28;20444;-54
2022/01/02 01:02:42;;;;;;;;;;;;;;;;;;2104811;28;19927;-49
2022/01/02 01:03:43;;;;;;;;;;;;;;;;;;2098906;28;19920;-50
2022/01/02 01:04:44;;;;;;;;;;;;;;;;;;2101492;28;19927;-51
2022/01/02 01:05:45;;;;;;;;;;;;;;;;;;2105425;28;20289;-52
2022/01/02 01:06:46;;;;;;;;;;;;;;;;;;2107256;28;20002;-52
2022/01/02 01:07:47;;;;;;;;;;;;;;;;;;2106739;28;19932;-50
2022/01/02 01:08:48;;;;;;;;;;;;;;;;;;2102639;28;19920;-50
2022/01/02 01:09:48;;;;;;;;;;;;;;;;;;2098752;28;20383;-50
2022/01/02 01:10:49;;;;;;;;;;;;;;;;;;2102510;28;19921;-51
2022/01/02 01:11:50;;;;;;;;;;;;;;;;;;2105902;28;20388;-50
2022/01/02 01:12:52;;;;;;;;;;;;;;;;;;2107128;28;19924;-51
2022/01/02 01:13:52;;;;;;;;;;;;;;;;;;2107844;28;20275;-52
2022/01/02 01:14:53;;;;;;;;;;;;;;;;;;2100059;28;19939;-51
2022/01/02 01:15:54;;;;;;;;;;;;;;;;;;2098681;28;19920;-50
2022/01/02 01:16:55;;;;;;;;;;;;;;;;;;2102601;28;19919;-50
2022/01/02 01:17:56;;;;;;;;;;;;;;;;;;2107074;28;19942;-50
2022/01/02 01:18:58;;;;;;;;;;;;;;;;;;2107201;28;20082;-50
2022/01/02 01:19:59;;;;;;;;;;;;;;;;;;2105724;28;20342;-52
2022/01/02 01:20:59;;;;;;;;;;;;;;;;;;2115530;28;19931;-50
2022/01/02 01:22:00;;;;;;;;;;;;;;;;;;2115320;28;19924;-54
2022/01/02 01:23:01;;;;;;;;;;;;;;;;;;2105368;28;19928;-50
2022/01/02 01:24:02;;;;;;;;;;;;;;;;;;2107062;28;19927;-50
2022/01/02 01:25:03;;;;;;;;;;;;;;;;;;2107016;28;19924;-50
2022/01/02 01:26:07;;;;;;;;;;;;;;;;;;2106383;28;19920;-53
2022/01/02 01:27:09;;;;;;;;;;;;;;;;;;2098552;28;19963;-53
2022/01/02 01:28:09;;;;;;;;;;;;;;;;;;2099116;28;19921;-50
2022/01/02 01:29:10;;;;;;;;;;;;;;;;;;2108430;28;20243;-50
2022/01/02 01:30:11;;;;;;;;;;;;;;;;;;2107130;28;20402;-50
2022/01/02 01:31:12;;;;;;;;;;;;;;;;;;2106032;28;19965;-53
2022/01/02 01:32:13;;;;;;;;;;;;;;;;;;2109135;28;19919;-51
2022/01/02 01:33:14;;;;;;;;;;;;;;;;;;2115528;28;19920;-50
2022/01/02 01:34:14;;;;;;;;;;;;;;;;;;2111723;28;20457;-54
2022/01/02 01:35:15;;;;;;;;;;;;;;;;;;2101452;28;19960;-50
2022/01/02 01:36:16;;;;;;;;;;;;;;;;;;2098551;28;19928;-53
2022/01/02 01:37:17;;;;;;;;;;;;;;;;;;2102371;28;19920;-51
2022/01/02 01:38:18;;;;;;;;;;;;;;;;;;2106003;28;20399;-50
2022/01/02 01:39:19;;;;;;;;;;;;;;;;;;2106720;28;20392;-50
2022/01/02 01:40:19;;;;;;;;;;;;;;;;;;2104980;28;19926;-52
2022/01/02 01:41:20;;;;;;;;;;;;;;;;;;2106653;28;19931;-50
2022/01/02 01:42:31;;;;;;;;;;;;;;;;;;2106869;28;19931;-50
2022/01/02 01:43:38;;;;;;;;;;;;;;;;;;2107774;28;20006;-50
2022/01/02 01:45:04;;;;;;;;;;;;;;;;;;2107002;28;20439;-50
2022/01/02 01:46:05;;;;;;;;;;;;;;;;;;2105789;28;21336;-50
2022/01/02 01:47:05;;;;;;;;;;;;;;;;;;2105342;28;19927;-51
2022/01/02 01:48:06;;;;;;;;;;;;;;;;;;2107041;28;20389;-54
2022/01/02 01:49:07;;;;;;;;;;;;;;;;;;2105893;28;20354;-52
2022/01/02 01:50:08;;;;;;;;;;;;;;;;;;2105664;28;20284;-52
2022/01/02 01:51:09;;;;;;;;;;;;;;;;;;2106860;28;19973;-54
2022/01/02 01:52:09;;;;;;;;;;;;;;;;;;2103418;28;19920;-51
2022/01/02 01:53:10;;;;;;;;;;;;;;;;;;2106573;28;19969;-50
2022/01/02 01:54:11;;;;;;;;;;;;;;;;;;2106532;28;19924;-52
2022/01/02 01:55:12;;;;;;;;;;;;;;;;;;2105537;28;19923;-54
2022/01/02 01:56:13;;;;;;;;;;;;;;;;;;2106596;28;19920;-52
2022/01/02 01:57:14;;;;;;;;;;;;;;;;;;2106950;28;19920;-54
2022/01/02 01:58:14;;;;;;;;;;;;;;;;;;2104415;28;20404;-51
2022/01/02 01:59:15;;;;;;;;;;;;;;;;;;2106609;28;20396;-51
2022/01/02 02:00:16;;;;;;;;;;;;;;;;;;2106959;28;19993;-53
2022/01/02 02:01:17;;;;;;;;;;;;;;;;;;2107319;28;20376;-54
2022/01/02 02:02:18;;;;;;;;;;;;;;;;;;2098518;28;20007;-51
2022/01/02 02:03:19;;;;;;;;;;;;;;;;;;2098383;28;20300;-52
2022/01/02 02:04:20;;;;;;;;;;;;;;;;;;2104012;28;20495;-52
2022/01/02 02:05:21;;;;;;;;;;;;;;;;;;2106847;28;19924;-53
2022/01/02 02:06:22;;;;;;;;;;;;;;;;;;2106332;28;20270;-54
2022/01/02 02:07:28;;;;;;;;;;;;;;;;;;2106394;28;19932;-54
2022/01/02 02:08:28;;;;;;;;;;;;;;;;;;2098505;28;20003;-51
2022/01/02 02:09:41;;;;;;;;;;;;;;;;;;2098717;28;19920;-54
2022/01/02 02:10:46;;;;;;;;;;;;;;;;;;2109926;28;20014;-53
2022/01/02 02:11:47;;;;;;;;;;;;;;;;;;2113933;28;19980;-55
2022/01/02 02:12:47;;;;;;;;;;;;;;;;;;2105688;28;19929;-52
2022/01/02 02:13:48;;;;;;;;;;;;;;;;;;2105222;28;19927;-55
2022/01/02 02:14:49;;;;;;;;;;;;;;;;;;2106760;28;19920;-53
2022/01/02 02:15:50;;;;;;;;;;;;;;;;;;2105580;28;20353;-53
2022/01/02 02:16:51;;;;;;;;;;;;;;;;;;2105543;28;19924;-55
2022/01/02 02:17:52;;;;;;;;;;;;;;;;;;2106803;28;20296;-52
2022/01/02 02:18:52;;;;;;;;;;;;;;;;;;2104476;28;19927;-53
2022/01/02 02:19:53;;;;;;;;;;;;;;;;;;2114574;28;19964;-52
2022/01/02 02:20:54;;;;;;;;;;;;;;;;;;2115062;28;19926;-54
2022/01/02 02:21:55;;;;;;;;;;;;;;;;;;2107562;28;19924;-51
2022/01/02 02:22:55;;;;;;;;;;;;;;;;;;2106645;28;20281;-52
2022/01/02 02:23:56;;;;;;;;;;;;;;;;;;2106678;28;19920;-54
2022/01/02 02:24:57;;;;;;;;;;;;;;;;;;2104421;28;20379;-52
2022/01/02 02:25:58;;;;;;;;;;;;;;;;;;2106595;28;20266;-53
2022/01/02 02:26:59;;;;;;;;;;;;;;;;;;2106635;28;19927;-51
2022/01/02 02:28:00;;;;;;;;;;;;;;;;;;2107094;28;19923;-53
2022/01/02 02:29:00;;;;;;;;;;;;;;;;;;2098316;28;19931;-50
2022/01/02 02:30:01;;;;;;;;;;;;;;;;;;2098201;28;19925;-50
2022/01/02 02:31:02;;;;;;;;;;;;;;;;;;2102690;28;19923;-50
2022/01/02 02:32:03;;;;;;;;;;;;;;;;;;2100487;28;20383;-49
2022/01/02 02:33:04;;;;;;;;;;;;;;;;;;2106065;28;19924;-51
2022/01/02 02:34:04;;;;;;;;;;;;;;;;;;2105201;28;20398;-50
2022/01/02 02:35:05;;;;;;;;;;;;;;;;;;2098214;28;20290;-51
2022/01/02 02:36:08;;;;;;;;;;;;;;;;;;2098507;28;19921;-50
2022/01/02 02:37:08;;;;;;;;;;;;;;;;;;2104549;28;20010;-50
2022/01/02 02:38:09;;;;;;;;;;;;;;;;;;2106443;28;19920;-49
2022/01/02 02:39:10;;;;;;;;;;;;;;;;;;2105874;28;19928;-50
2022/01/02 02:40:11;;;;;;;;;;;;;;;;;;2106282;28;20450;-50
2022/01/02 02:41:12;;;;;;;;;;;;;;;;;;2106464;28;19921;-50
2022/01/02 02:42:23;;;;;;;;;;;;;;;;;;2105089;28;19920;-50
2022/01/02 02:43:30;;;;;;;;;;;;;;;;;;2111707;28;19954;-52
2022/01/02 02:44:36;;;;;;;;;;;;;;;;;;2115025;28;20495;-50
2022/01/02 02:49:46;;;;;;;;;;;;;;;;;;2064483;28;20233;-49
2022/01/02 02:50:46;;;;;;;;;;;;;;;;;;2077325;28;19921;-53
2022/01/02 02:51:52;;;;;;;;;;;;;;;;;;2102500;28;19944;-50
2022/01/02 02:52:55;;;;;;;;;;;;;;;;;;2106546;28;20326;-49
2022/01/02 02:53:56;;;;;;;;;;;;;;;;;;2105940;28;19920;-51
2022/01/02 02:54:57;;;;;;;;;;;;;;;;;;2104484;28;19974;-49
2022/01/02 02:55:59;;;;;;;;;;;;;;;;;;2106523;28;19919;-50
2022/01/02 02:57:00;;;;;;;;;;;;;;;;;;2105310;28;20011;-50
2022/01/02 02:58:17;;;;;;;;;;;;;;;;;;2109770;28;19961;-50
2022/01/02 02:59:18;;;;;;;;;;;;;;;;;;2115034;28;20359;-50
2022/01/02 03:00:19;;;;;;;;;;;;;;;;;;2110215;28;19924;-51
2022/01/02 03:01:20;;;;;;;;;;;;;;;;;;2099948;28;20274;-49
2022/01/02 03:02:21;;;;;;;;;;;;;;;;;;2098141;28;19931;-50
2022/01/02 03:03:22;;;;;;;;;;;;;;;;;;2101431;28;19920;-50
2022/01/02 03:04:23;;;;;;;;;;;;;;;;;;2114349;28;19920;-50
2022/01/02 03:05:24;;;;;;;;;;;;;;;;;;2114844;28;19965;-51
2022/01/02 03:06:25;;;;;;;;;;;;;;;;;;2107383;28;19927;-53
2022/01/02 03:07:25;;;;;;;;;;;;;;;;;;2106333;28;19920;-51
2022/01/02 03:08:26;;;;;;;;;;;;;;;;;;2106387;28;20068;-51
2022/01/02 03:09:38;;;;;;;;;;;;;;;;;;2103933;28;19920;-49
2022/01/02 03:10:38;;;;;;;;;;;;;;;;;;2098130;28;20124;-50
2022/01/02 03:11:39;;;;;;;;;;;;;;;;;;2097808;28;19965;-51
2022/01/02 03:12:40;;;;;;;;;;;;;;;;;;2105448;28;19920;-49
2022/01/02 03:13:41;;;;;;;;;;;;;;;;;;2106459;28;19969;-50
2022/01/02 03:14:42;;;;;;;;;;;;;;;;;;2105955;28;20281;-49
2022/01/02 03:15:43;;;;;;;;;;;;;;;;;;2104253;28;19920;-49
2022/01/02 03:16:43;;;;;;;;;;;;;;;;;;2106240;28;19920;-50
2022/01/02 03:17:44;;;;;;;;;;;;;;;;;;2105677;28;20365;-51
2022/01/02 03:18:45;;;;;;;;;;;;;;;;;;2101776;28;19921;-49
2022/01/02 03:19:46;;;;;;;;;;;;;;;;;;2098025;28;19970;-49
2022/01/02 03:20:46;;;;;;;;;;;;;;;;;;2098870;28;20416;-52
2022/01/02 03:21:47;;;;;;;;;;;;;;;;;;2108443;28;19920;-48
2022/01/02 03:22:48;;;;;;;;;;;;;;;;;;2106334;28;19968;-49
2022/01/02 03:23:49;;;;;;;;;;;;;;;;;;2104691;28;19935;-49
2022/01/02 03:24:52;;;;;;;;;;;;;;;;;;2104424;28;20336;-50
2022/01/02 03:25:52;;;;;;;;;;;;;;;;;;2098028;28;20050;-48
2022/01/02 03:26:53;;;;;;;;;;;;;;;;;;2100511;28;19969;-50
2022/01/02 03:27:54;;;;;;;;;;;;;;;;;;2102881;28;19927;-48
2022/01/02 03:28:55;;;;;;;;;;;;;;;;;;2097738;28;19921;-50
2022/01/02 03:29:56;;;;;;;;;;;;;;;;;;2100020;28;19929;-52
2022/01/02 03:30:57;;;;;;;;;;;;;;;;;;2100236;28;19924;-50
2022/01/02 03:31:57;;;;;;;;;;;;;;;;;;2099416;28;19950;-48
2022/01/02 03:32:58;;;;;;;;;;;;;;;;;;2106382;28;20147;-49
2022/01/02 03:33:59;;;;;;;;;;;;;;;;;;2100396;28;19921;-52
2022/01/02 03:35:00;;;;;;;;;;;;;;;;;;2098128;28;19932;-46
2022/01/02 03:36:01;;;;;;;;;;;;;;;;;;2101446;28;20288;-46
2022/01/02 03:37:01;;;;;;;;;;;;;;;;;;2105843;28;19923;-46
2022/01/02 03:38:02;;;;;;;;;;;;;;;;;;2106160;28;19920;-47
2022/01/02 03:39:03;;;;;;;;;;;;;;;;;;2103813;28;19920;-47
2022/01/02 03:40:04;;;;;;;;;;;;;;;;;;2098460;28;19970;-46
2022/01/02 03:41:05;;;;;;;;;;;;;;;;;;2097888;28;19943;-46
2022/01/02 03:42:05;;;;;;;;;;;;;;;;;;2102329;28;19920;-46
2022/01/02 03:43:06;;;;;;;;;;;;;;;;;;2106140;28;19923;-48
2022/01/02 03:44:07;;;;;;;;;;;;;;;;;;2106124;28;19920;-46
2022/01/02 03:45:08;;;;;;;;;;;;;;;;;;2103310;28;19923;-46
2022/01/02 03:46:09;;;;;;;;;;;;;;;;;;2097768;28;20280;-46
2022/01/02 03:47:10;;;;;;;;;;;;;;;;;;2101696;28;19930;-46
2022/01/02 03:48:11;;;;;;;;;;;;;;;;;;2103824;28;19931;-50
2022/01/02 03:49:11;;;;;;;;;;;;;;;;;;2106130;28;20327;-46
2022/01/02 03:50:12;;;;;;;;;;;;;;;;;;2105825;28;19920;-45
2022/01/02 03:51:13;;;;;;;;;;;;;;;;;;2104113;28;19935;-46
2022/01/02 03:52:14;;;;;;;;;;;;;;;;;;2106038;28;19927;-46
2022/01/02 03:53:15;;;;;;;;;;;;;;;;;;2105643;28;19920;-46
2022/01/02 03:54:15;;;;;;;;;;;;;;;;;;2107736;28;19926;-46
2022/01/02 03:55:16;;;;;;;;;;;;;;;;;;2114712;28;19984;-47
2022/01/02 03:56:17;;;;;;;;;;;;;;;;;;2112559;28;20257;-45
2022/01/02 03:57:18;;;;;;;;;;;;;;;;;;2103657;28;19973;-49
2022/01/02 03:58:19;;;;;;;;;;;;;;;;;;2106097;28;19920;-46
2022/01/02 03:59:19;;;;;;;;;;;;;;;;;;2104099;28;20369;-47
2022/01/02 04:00:20;;;;;;;;;;;;;;;;;;2112606;28;20340;-47
2022/01/02 04:01:21;;;;;;;;;;;;;;;;;;2114480;28;19923;-48
2022/01/02 04:02:22;;;;;;;;;;;;;;;;;;2106600;28;19974;-46
2022/01/02 04:03:23;;;;;;;;;;;;;;;;;;2107358;28;19943;-47
2022/01/02 04:04:24;;;;;;;;;;;;;;;;;;2107528;28;20365;-46
2022/01/02 04:05:25;;;;;;;;;;;;;;;;;;2105796;28;19968;-46
2022/01/02 04:06:26;;;;;;;;;;;;;;;;;;2107186;28;19920;-47
2022/01/02 04:07:26;;;;;;;;;;;;;;;;;;2107536;28;20039;-47
2022/01/02 04:08:27;;;;;;;;;;;;;;;;;;2105363;28;20250;-46
2022/01/02 04:09:28;;;;;;;;;;;;;;;;;;2107447;28;19927;-47
2022/01/02 04:10:29;;;;;;;;;;;;;;;;;;2107658;28;19927;-48
2022/01/02 04:11:30;;;;;;;;;;;;;;;;;;2105201;28;19920;-47
2022/01/02 04:12:31;;;;;;;;;;;;;;;;;;2107504;28;19924;-47
2022/01/02 04:13:31;;;;;;;;;;;;;;;;;;2107567;28;19920;-47
2022/01/02 04:14:32;;;;;;;;;;;;;;;;;;2105128;28;19924;-47
2022/01/02 04:15:33;;;;;;;;;;;;;;;;;;2107682;28;20360;-47
2022/01/02 04:16:34;;;;;;;;;;;;;;;;;;2107380;28;19924;-46
2022/01/02 04:17:35;;;;;;;;;;;;;;;;;;2107372;28;20356;-46
2022/01/02 04:18:36;;;;;;;;;;;;;;;;;;2098861;28;19921;-46
2022/01/02 04:19:37;;;;;;;;;;;;;;;;;;2098136;28;19920;-47
2022/01/02 04:20:38;;;;;;;;;;;;;;;;;;2107668;28;19938;-47
2022/01/02 04:21:38;;;;;;;;;;;;;;;;;;2115234;28;19919;-47
2022/01/02 04:22:39;;;;;;;;;;;;;;;;;;2107842;28;20250;-47
2022/01/02 04:23:40;;;;;;;;;;;;;;;;;;2109084;28;20348;-47
2022/01/02 04:24:41;;;;;;;;;;;;;;;;;;2115994;28;19953;-48
2022/01/02 04:25:42;;;;;;;;;;;;;;;;;;2113748;28;19920;-47
2022/01/02 04:26:43;;;;;;;;;;;;;;;;;;2105665;28;19920;-46
2022/01/02 04:27:43;;;;;;;;;;;;;;;;;;2107336;28;19920;-47
2022/01/02 04:28:44;;;;;;;;;;;;;;;;;;2106175;28;19965;-46
2022/01/02 04:29:45;;;;;;;;;;;;;;;;;;2107429;28;19919;-47
2022/01/02 04:30:46;;;;;;;;;;;;;;;;;;2107589;28;20010;-47
2022/01/02 04:31:47;;;;;;;;;;;;;;;;;;2104088;28;19924;-47
2022/01/02 04:32:48;;;;;;;;;;;;;;;;;;2105735;28;19921;-47
2022/01/02 04:33:49;;;;;;;;;;;;;;;;;;2099094;28;19999;-46
2022/01/02 04:34:50;;;;;;;;;;;;;;;;;;2100431;28;19927;-46
2022/01/02 04:35:51;;;;;;;;;;;;;;;;;;2104131;28;19924;-48
2022/01/02 04:36:52;;;;;;;;;;;;;;;;;;2098852;28;19920;-46
2022/01/02 04:37:52;;;;;;;;;;;;;;;;;;2101390;28;19927;-47
2022/01/02 04:38:53;;;;;;;;;;;;;;;;;;2103052;28;19921;-46
2022/01/02 04:39:54;;;;;;;;;;;;;;;;;;2099056;28;20392;-46
2022/01/02 04:40:55;;;;;;;;;;;;;;;;;;2102594;28;19924;-46
2022/01/02 04:41:56;;;;;;;;;;;;;;;;;;2105898;28;19919;-46
2022/01/02 04:42:56;;;;;;;;;;;;;;;;;;2107015;28;20052;-46
2022/01/02 04:43:57;;;;;;;;;;;;;;;;;;2105826;28;20444;-47
2022/01/02 04:44:59;;;;;;;;;;;;;;;;;;2099064;28;20378;-46
2022/01/02 04:46:00;;;;;;;;;;;;;;;;;;2099188;28;19931;-49
2022/01/02 04:47:01;;;;;;;;;;;;;;;;;;2104852;28;19924;-48
2022/01/02 04:48:02;;;;;;;;;;;;;;;;;;2107230;28;20369;-46
2022/01/02 04:49:03;;;;;;;;;;;;;;;;;;2106866;28;19920;-46
2022/01/02 04:50:03;;;;;;;;;;;;;;;;;;2105275;28;20293;-47
2022/01/02 04:51:04;;;;;;;;;;;;;;;;;;2107324;28;19965;-46
2022/01/02 04:52:05;;;;;;;;;;;;;;;;;;2106793;28;20280;-47
2022/01/02 04:53:06;;;;;;;;;;;;;;;;;;2109171;28;19926;-47
2022/01/02 04:54:07;;;;;;;;;;;;;;;;;;2115676;28;20295;-46
2022/01/02 04:55:07;;;;;;;;;;;;;;;;;;2112888;28;20398;-46
2022/01/02 04:56:08;;;;;;;;;;;;;;;;;;2105772;28;19926;-46
2022/01/02 04:57:09;;;;;;;;;;;;;;;;;;2107366;28;19989;-45
2022/01/02 04:58:10;;;;;;;;;;;;;;;;;;2105716;28;19920;-46
2022/01/02 04:59:11;;;;;;;;;;;;;;;;;;2105916;28;19973;-46
2022/01/02 05:00:12;;;;;;;;;;;;;;;;;;2098724;28;20305;-48
2022/01/02 05:01:14;;;;;;;;;;;;;;;;;;2099964;28;19927;-47
2022/01/02 05:02:15;;;;;;;;;;;;;;;;;;2105968;28;19927;-46
2022/01/02 05:03:16;;;;;;;;;;;;;;;;;;2107156;28;19920;-46
2022/01/02 05:04:17;;;;;;;;;;;;;;;;;;2106260;28;20390;-46
2022/01/02 05:05:17;;;;;;;;;;;;;;;;;;2105805;28;19927;-47
2022/01/02 05:06:18;;;;;;;;;;;;;;;;;;2107141;28;19920;-47
2022/01/02 05:07:19;;;;;;;;;;;;;;;;;;2106205;28;20377;-46
2022/01/02 05:08:20;;;;;;;;;;;;;;;;;;2105734;28;20270;-47
2022/01/02 05:09:20;;;;;;;;;;;;;;;;;;2107291;28;19935;-46
2022/01/02 05:10:21;;;;;;;;;;;;;;;;;;2105705;28;19924;-47
2022/01/02 05:11:22;;;;;;;;;;;;;;;;;;2106077;28;20262;-46
2022/01/02 05:12:23;;;;;;;;;;;;;;;;;;2107181;28;19935;-47
2022/01/02 05:13:24;;;;;;;;;;;;;;;;;;2106142;28;20007;-46
2022/01/02 05:14:25;;;;;;;;;;;;;;;;;;2106153;28;19927;-47
2022/01/02 05:15:25;;;;;;;;;;;;;;;;;;2107088;28;19920;-46
2022/01/02 05:16:26;;;;;;;;;;;;;;;;;;2105755;28;19919;-46
2022/01/02 05:17:27;;;;;;;;;;;;;;;;;;2107132;28;19920;-46
2022/01/02 05:18:28;;;;;;;;;;;;;;;;;;2107070;28;20357;-47
2022/01/02 05:19:29;;;;;;;;;;;;;;;;;;2105963;28;19942;-46
2022/01/02 05:20:30;;;;;;;;;;;;;;;;;;2098753;28;20031;-46
2022/01/02 05:21:31;;;;;;;;;;;;;;;;;;2098620;28;20365;-45
2022/01/02 05:22:32;;;;;;;;;;;;;;;;;;2104220;28;19928;-46
2022/01/02 05:23:32;;;;;;;;;;;;;;;;;;2115501;28;19934;-46
2022/01/02 05:24:33;;;;;;;;;;;;;;;;;;2115635;28;19923;-46
2022/01/02 05:25:34;;;;;;;;;;;;;;;;;;2105872;28;19927;-46
2022/01/02 05:26:35;;;;;;;;;;;;;;;;;;2106938;28;19923;-47
2022/01/02 05:27:36;;;;;;;;;;;;;;;;;;2106644;28;19920;-46
2022/01/02 05:28:37;;;;;;;;;;;;;;;;;;2106908;28;20258;-46
2022/01/02 05:29:38;;;;;;;;;;;;;;;;;;2115508;28;19926;-47
2022/01/02 05:30:38;;;;;;;;;;;;;;;;;;2113888;28;19919;-47
2022/01/02 05:31:39;;;;;;;;;;;;;;;;;;2104893;28;19920;-47
2022/01/02 05:32:40;;;;;;;;;;;;;;;;;;2107071;28;19919;-46
2022/01/02 05:33:41;;;;;;;;;;;;;;;;;;2104958;28;19920;-45
2022/01/02 05:34:42;;;;;;;;;;;;;;;;;;2113116;28;19949;-45
2022/01/02 05:35:43;;;;;;;;;;;;;;;;;;2115531;28;19927;-46
2022/01/02 05:36:48;;;;;;;;;;;;;;;;;;2109916;28;20336;-47
2022/01/02 05:37:49;;;;;;;;;;;;;;;;;;2106881;28;20007;-46
2022/01/02 05:38:50;;;;;;;;;;;;;;;;;;2107112;28;20396;-46
2022/01/02 05:39:50;;;;;;;;;;;;;;;;;;2103237;28;19956;-45
2022/01/02 05:40:53;;;;;;;;;;;;;;;;;;2106850;28;19963;-46
2022/01/02 05:41:53;;;;;;;;;;;;;;;;;;2106840;28;20353;-46
2022/01/02 05:42:54;;;;;;;;;;;;;;;;;;2105692;28;19931;-45
2022/01/02 05:43:56;;;;;;;;;;;;;;;;;;2106822;28;20125;-46
2022/01/02 05:44:56;;;;;;;;;;;;;;;;;;2106898;28;20003;-45
2022/01/02 05:46:03;;;;;;;;;;;;;;;;;;2107566;28;20372;-46
2022/01/02 05:47:04;;;;;;;;;;;;;;;;;;2098664;28;19931;-47
2022/01/02 05:48:05;;;;;;;;;;;;;;;;;;2098362;28;19944;-45
2022/01/02 05:49:06;;;;;;;;;;;;;;;;;;2107951;28;19984;-46
2022/01/02 05:50:07;;;;;;;;;;;;;;;;;;2115487;28;19923;-45
2022/01/02 05:51:08;;;;;;;;;;;;;;;;;;2113784;28;19927;-46
2022/01/02 05:52:08;;;;;;;;;;;;;;;;;;2108334;28;19920;-46
2022/01/02 05:53:09;;;;;;;;;;;;;;;;;;2115333;28;19919;-45
2022/01/02 05:54:10;;;;;;;;;;;;;;;;;;2113192;28;19919;-46
2022/01/02 05:55:11;;;;;;;;;;;;;;;;;;2105428;28;20400;-46
2022/01/02 05:56:12;;;;;;;;;;;;;;;;;;2098439;28;19993;-46
2022/01/02 05:57:13;;;;;;;;;;;;;;;;;;2099219;28;19920;-46
2022/01/02 05:58:13;;;;;;;;;;;;;;;;;;2110563;28;19964;-46
2022/01/02 05:59:14;;;;;;;;;;;;;;;;;;2115231;28;19920;-45
2022/01/02 06:00:15;;;;;;;;;;;;;;;;;;2110457;28;19919;-46
2022/01/02 06:01:16;;;;;;;;;;;;;;;;;;2110649;28;19927;-46
2022/01/02 06:02:17;;;;;;;;;;;;;;;;;;2115109;28;19920;-45
2022/01/02 06:03:17;;;;;;;;;;;;;;;;;;2109993;28;19927;-46
2022/01/02 06:04:18;;;;;;;;;;;;;;;;;;2112294;28;19920;-46
2022/01/02 06:05:19;;;;;;;;;;;;;;;;;;2115346;28;19919;-45
2022/01/02 06:06:20;;;;;;;;;;;;;;;;;;2110139;28;20281;-45
2022/01/02 06:07:21;;;;;;;;;;;;;;;;;;2106481;28;19985;-45
2022/01/02 06:08:22;;;;;;;;;;;;;;;;;;2106689;28;19924;-45
2022/01/02 06:09:22;;;;;;;;;;;;;;;;;;2105713;28;19970;-45
2022/01/02 06:10:23;;;;;;;;;;;;;;;;;;2105465;28;19923;-45
2022/01/02 06:11:24;;;;;;;;;;;;;;;;;;2106664;28;20365;-46
2022/01/02 06:12:25;;;;;;;;;;;;;;;;;;2107024;28;19931;-45
2022/01/02 06:13:26;;;;;;;;;;;;;;;;;;2100301;28;20057;-47
2022/01/02 06:14:26;;;;;;;;;;;;;;;;;;2098358;28;19924;-46
2022/01/02 06:15:27;;;;;;;;;;;;;;;;;;2102007;28;19923;-46
2022/01/02 06:16:28;;;;;;;;;;;;;;;;;;2105421;28;19920;-47
2022/01/02 06:17:29;;;;;;;;;;;;;;;;;;2106750;28;19981;-47
2022/01/02 06:18:30;;;;;;;;;;;;;;;;;;2104428;28;19927;-49
2022/01/02 06:19:31;;;;;;;;;;;;;;;;;;2106517;28;20214;-46
2022/01/02 06:20:32;;;;;;;;;;;;;;;;;;2106816;28;19923;-45
2022/01/02 06:21:33;;;;;;;;;;;;;;;;;;2107336;28;20288;-46
2022/01/02 06:22:34;;;;;;;;;;;;;;;;;;2098257;28;19924;-45
2022/01/02 06:23:35;;;;;;;;;;;;;;;;;;2098385;28;19921;-47
2022/01/02 06:24:35;;;;;;;;;;;;;;;;;;2101896;28;19926;-45
2022/01/02 06:25:36;;;;;;;;;;;;;;;;;;2097869;28;19927;-46
2022/01/02 06:26:37;;;;;;;;;;;;;;;;;;2098221;28;20011;-45
2022/01/02 06:27:39;;;;;;;;;;;;;;;;;;2105457;28;20365;-46
2022/01/02 06:28:40;;;;;;;;;;;;;;;;;;2098414;28;20015;-46
2022/01/02 06:29:41;;;;;;;;;;;;;;;;;;2099664;28;19919;-45
2022/01/02 06:30:41;;;;;;;;;;;;;;;;;;2109086;28;19924;-47
2022/01/02 06:31:42;;;;;;;;;;;;;;;;;;2105136;28;19931;-45
2022/01/02 06:32:43;;;;;;;;;;;;;;;;;;2105746;28;19920;-48
2022/01/02 06:33:44;;;;;;;;;;;;;;;;;;2111336;28;20296;-46
2022/01/02 06:34:46;;;;;;;;;;;;;;;;;;2114978;28;19923;-46
2022/01/02 06:35:46;;;;;;;;;;;;;;;;;;2110327;28;19963;-47
2022/01/02 06:36:47;;;;;;;;;;;;;;;;;;2105215;28;19927;-46
2022/01/02 06:37:48;;;;;;;;;;;;;;;;;;2106570;28;20292;-46
2022/01/02 06:38:49;;;;;;;;;;;;;;;;;;2105457;28;20396;-45
2022/01/02 06:39:50;;;;;;;;;;;;;;;;;;2106245;28;19920;-46
2022/01/02 06:40:51;;;;;;;;;;;;;;;;;;2106695;28;19974;-46
2022/01/02 06:41:51;;;;;;;;;;;;;;;;;;2104625;28;20288;-45
2022/01/02 06:42:52;;;;;;;;;;;;;;;;;;2105999;28;19989;-45
2022/01/02 06:43:53;;;;;;;;;;;;;;;;;;2106631;28;19920;-46
2022/01/02 06:44:54;;;;;;;;;;;;;;;;;;2107416;28;19927;-46
2022/01/02 06:45:55;;;;;;;;;;;;;;;;;;2098913;28;19927;-45
2022/01/02 06:46:56;;;;;;;;;;;;;;;;;;2097981;28;20303;-46
2022/01/02 06:47:57;;;;;;;;;;;;;;;;;;2102707;28;19920;-45
2022/01/02 06:48:57;;;;;;;;;;;;;;;;;;2106435;28;20331;-45
2022/01/02 06:50:18;;;;;;;;;;;;;;;;;;2105569;28;20323;-45
2022/01/02 06:51:19;;;;;;;;;;;;;;;;;;2108295;28;19924;-46
2022/01/02 06:52:20;;;;;;;;;;;;;;;;;;2114989;28;19919;-45
2022/01/02 06:53:21;;;;;;;;;;;;;;;;;;2110952;28;19920;-46
2022/01/02 06:54:21;;;;;;;;;;;;;;;;;;2106832;28;19927;-47
2022/01/02 06:55:22;;;;;;;;;;;;;;;;;;2106419;28;19920;-45
2022/01/02 06:56:23;;;;;;;;;;;;;;;;;;2104676;28;19924;-47
2022/01/02 06:57:24;;;;;;;;;;;;;;;;;;2102915;28;19920;-45
2022/01/02 06:58:25;;;;;;;;;;;;;;;;;;2098082;28;20430;-45
2022/01/02 06:59:25;;;;;;;;;;;;;;;;;;2100884;28;19920;-46
2022/01/02 07:00:27;;;;;;;;;;;;;;;;;;2104921;28;20341;-46
2022/01/02 07:01:28;;;;;;;;;;;;;;;;;;2106296;28;19947;-45
2022/01/02 07:02:29;;;;;;;;;;;;;;;;;;2104355;28;19967;-46